Time;durP1;ratioP1;P1;durP2;ratioP2;P2;SDS_P1;SDS_P2;PMS_P1;PMS_P2;Temp;Humidity;BMP_temperature;BMP_pressure;BME280_temperature;BME280_humidity;BME280_pressure;Samples;Min_cycle;Max_cycle;Signal;HPM_P1;HPM_P2
2021/12/04 00:00:26;;;;;;;26.02;16.17;;;;;;;;;;4993602;28;20501;-80
2021/12/04 00:02:53;;;;;;;27.75;16.50;;;;;;;;;;4993504;28;20473;-80
2021/12/04 00:05:20;;;;;;;26.63;15.85;;;;;;;;;;4993550;28;20409;-80
2021/12/04 00:07:46;;;;;;;28.08;17.30;;;;;;;;;;4993424;28;20049;-80
2021/12/04 00:10:21;;;;;;;29.25;17.77;;;;;;;;;;4992556;28;20047;-80
2021/12/04 00:12:48;;;;;;;30.65;17.67;;;;;;;;;;4992411;28;20078;-80
2021/12/04 00:15:14;;;;;;;28.90;16.85;;;;;;;;;;4993650;28;20038;-80
2021/12/04 00:17:40;;;;;;;28.63;18.60;;;;;;;;;;4992236;28;20121;-80
2021/12/04 00:20:07;;;;;;;27.95;18.05;;;;;;;;;;4992373;28;20401;-80
2021/12/04 00:22:33;;;;;;;33.60;18.42;;;;;;;;;;4992353;28;20493;-80
2021/12/04 00:24:59;;;;;;;31.15;18.55;;;;;;;;;;4993217;28;20064;-82
2021/12/04 00:27:25;;;;;;;32.28;17.75;;;;;;;;;;4975637;28;20454;-80
2021/12/04 00:29:51;;;;;;;32.83;18.15;;;;;;;;;;4992248;28;20046;-80
2021/12/04 00:32:27;;;;;;;32.78;18.60;;;;;;;;;;4992159;28;20431;-81
2021/12/04 00:35:05;;;;;;;32.00;18.13;;;;;;;;;;4992634;28;20478;-81
2021/12/04 00:51:16;;;;;;;34.70;18.35;;;;;;;;;;4993167;28;20042;-81
2021/12/04 00:53:42;;;;;;;31.90;18.17;;;;;;;;;;4991708;28;20074;-80
2021/12/04 00:56:08;;;;;;;32.63;17.90;;;;;;;;;;4992105;28;20478;-80
2021/12/04 00:58:34;;;;;;;31.48;17.45;;;;;;;;;;4992904;28;20493;-81
2021/12/04 01:01:00;;;;;;;31.30;17.83;;;;;;;;;;4991777;28;20046;-80
2021/12/04 01:03:26;;;;;;;30.60;18.15;;;;;;;;;;4991678;28;20141;-80
2021/12/04 01:05:52;;;;;;;32.97;18.92;;;;;;;;;;4993206;28;20038;-80
2021/12/04 01:08:18;;;;;;;30.88;18.45;;;;;;;;;;4991601;28;20117;-80
2021/12/04 01:10:45;;;;;;;30.02;17.88;;;;;;;;;;4991924;28;20500;-81
2021/12/04 01:13:11;;;;;;;31.13;17.60;;;;;;;;;;4991796;28;20065;-80
2021/12/04 01:15:41;;;;;;;33.40;17.92;;;;;;;;;;4993045;28;20468;-80
2021/12/04 01:18:07;;;;;;;30.63;17.83;;;;;;;;;;4991519;28;20424;-80
2021/12/04 01:20:33;;;;;;;32.67;18.98;;;;;;;;;;4991935;28;20038;-80
2021/12/04 01:23:00;;;;;;;28.58;17.65;;;;;;;;;;4992667;28;20038;-80
2021/12/04 01:25:25;;;;;;;30.80;17.95;;;;;;;;;;4991610;28;20046;-81
2021/12/04 01:27:51;;;;;;;31.20;17.92;;;;;;;;;;4995534;28;20042;-80
2021/12/04 01:30:17;;;;;;;30.42;17.15;;;;;;;;;;4996598;28;20168;-80
2021/12/04 01:32:43;;;;;;;33.38;17.27;;;;;;;;;;4996280;28;20073;-81
2021/12/04 01:35:09;;;;;;;30.33;17.13;;;;;;;;;;4995048;28;20097;-80
2021/12/04 01:37:35;;;;;;;36.50;18.30;;;;;;;;;;4994956;28;20050;-81
2021/12/04 01:40:02;;;;;;;33.05;18.10;;;;;;;;;;4994629;28;20465;-81
2021/12/04 01:42:29;;;;;;;32.92;16.88;;;;;;;;;;4995257;28;20096;-81
2021/12/04 01:44:55;;;;;;;31.10;17.60;;;;;;;;;;4994612;28;20064;-80
2021/12/04 01:47:21;;;;;;;36.30;17.58;;;;;;;;;;4994791;28;20497;-81
2021/12/04 01:49:51;;;;;;;30.90;16.92;;;;;;;;;;4994487;28;20046;-81
2021/12/04 01:52:18;;;;;;;30.40;17.60;;;;;;;;;;4996124;28;20397;-80
2021/12/04 01:54:44;;;;;;;28.08;16.02;;;;;;;;;;4994457;28;20551;-80
2021/12/04 01:57:12;;;;;;;30.30;16.33;;;;;;;;;;4994880;28;20077;-80
2021/12/04 01:59:38;;;;;;;29.45;16.00;;;;;;;;;;4995971;28;20113;-81
2021/12/04 02:02:04;;;;;;;29.67;16.90;;;;;;;;;;4996007;28;20042;-80
2021/12/04 02:04:30;;;;;;;30.23;15.60;;;;;;;;;;4994553;28;20046;-80
2021/12/04 02:06:56;;;;;;;29.58;16.05;;;;;;;;;;4994425;28;20496;-81
2021/12/04 02:09:22;;;;;;;30.83;16.45;;;;;;;;;;4994128;28;20117;-81
2021/12/04 02:11:48;;;;;;;28.45;16.25;;;;;;;;;;4995425;28;20541;-81
2021/12/04 02:14:14;;;;;;;32.03;16.42;;;;;;;;;;4995544;28;20129;-80
2021/12/04 02:16:40;;;;;;;33.83;16.88;;;;;;;;;;4994228;28;20042;-80
2021/12/04 02:19:06;;;;;;;31.00;16.38;;;;;;;;;;4995506;28;20042;-80
2021/12/04 02:21:32;;;;;;;28.52;15.98;;;;;;;;;;4995639;28;20515;-80
2021/12/04 02:23:58;;;;;;;26.05;15.60;;;;;;;;;;4995042;28;20086;-81
2021/12/04 02:26:24;;;;;;;28.35;15.10;;;;;;;;;;4994020;28;20065;-80
2021/12/04 02:28:51;;;;;;;28.63;15.20;;;;;;;;;;4995198;28;20070;-80
2021/12/04 02:31:17;;;;;;;28.23;15.35;;;;;;;;;;4993918;28;20049;-80
2021/12/04 02:33:43;;;;;;;28.77;15.05;;;;;;;;;;4995274;28;20042;-80
2021/12/04 02:36:09;;;;;;;27.27;15.05;;;;;;;;;;4993846;28;20409;-80
2021/12/04 02:38:36;;;;;;;28.00;14.77;;;;;;;;;;4992795;28;20052;-80
2021/12/04 02:41:02;;;;;;;25.00;14.45;;;;;;;;;;4994054;28;20057;-80
2021/12/04 02:43:32;;;;;;;28.98;15.32;;;;;;;;;;4993799;28;20482;-81
2021/12/04 02:45:58;;;;;;;26.38;14.15;;;;;;;;;;4995122;28;20046;-81
2021/12/04 02:48:24;;;;;;;25.42;13.77;;;;;;;;;;4994086;28;20100;-80
2021/12/04 02:50:50;;;;;;;23.55;13.63;;;;;;;;;;4977442;28;20389;-80
2021/12/04 02:53:17;;;;;;;22.45;12.63;;;;;;;;;;4993844;28;20038;-80
2021/12/04 02:55:43;;;;;;;21.27;12.75;;;;;;;;;;4994859;28;20168;-80
2021/12/04 02:58:09;;;;;;;23.00;13.95;;;;;;;;;;4995051;28;20073;-80
2021/12/04 03:00:36;;;;;;;21.63;13.13;;;;;;;;;;4993201;28;20049;-80
2021/12/04 03:03:03;;;;;;;24.83;13.98;;;;;;;;;;4977559;28;20080;-81
2021/12/04 03:05:29;;;;;;;23.60;13.43;;;;;;;;;;4993261;28;20439;-81
2021/12/04 03:07:56;;;;;;;23.63;13.63;;;;;;;;;;4994835;28;20117;-80
2021/12/04 03:10:23;;;;;;;21.95;12.73;;;;;;;;;;4994547;28;20034;-80
2021/12/04 03:12:49;;;;;;;23.55;13.68;;;;;;;;;;4994641;28;20038;-80
2021/12/04 03:15:15;;;;;;;24.42;13.38;;;;;;;;;;4994296;28;20488;-80
2021/12/04 03:17:41;;;;;;;22.13;13.75;;;;;;;;;;4994575;28;20042;-80
2021/12/04 03:20:08;;;;;;;22.67;13.35;;;;;;;;;;4994056;28;20042;-80
2021/12/04 03:22:34;;;;;;;21.05;13.23;;;;;;;;;;4992964;28;20042;-80
2021/12/04 03:25:00;;;;;;;19.70;13.00;;;;;;;;;;4993835;28;20062;-80
2021/12/04 03:27:30;;;;;;;24.77;13.20;;;;;;;;;;4976698;28;20057;-80
2021/12/04 03:29:58;;;;;;;22.17;12.75;;;;;;;;;;4993876;28;20042;-80
2021/12/04 03:35:19;;;;;;;23.95;13.68;;;;;;;;;;4994063;28;20050;-80
2021/12/04 03:43:08;;;;;;;19.52;12.25;;;;;;;;;;4994116;28;20054;-81
2021/12/04 03:45:36;;;;;;;23.48;13.80;;;;;;;;;;4992420;28;20046;-81
2021/12/04 03:48:07;;;;;;;21.20;12.23;;;;;;;;;;4993837;28;20493;-81
2021/12/04 03:50:34;;;;;;;21.52;13.27;;;;;;;;;;4993525;28;20046;-80
2021/12/04 03:53:00;;;;;;;21.08;13.20;;;;;;;;;;4992810;28;20045;-80
2021/12/04 03:55:26;;;;;;;21.55;13.23;;;;;;;;;;4993754;28;20532;-80
2021/12/04 03:57:52;;;;;;;22.88;13.57;;;;;;;;;;4976357;28;20046;-80
2021/12/04 04:00:18;;;;;;;21.58;13.18;;;;;;;;;;4993596;28;20389;-80
2021/12/04 04:02:45;;;;;;;21.35;13.10;;;;;;;;;;4992462;28;20077;-80
2021/12/04 04:05:11;;;;;;;20.65;13.50;;;;;;;;;;4992182;28;20096;-80
2021/12/04 04:07:37;;;;;;;23.10;12.82;;;;;;;;;;4992287;28;20045;-80
2021/12/04 04:10:07;;;;;;;20.38;12.73;;;;;;;;;;4975868;28;20042;-80
2021/12/04 04:12:33;;;;;;;19.45;11.93;;;;;;;;;;4992510;28;20041;-82
2021/12/04 04:14:59;;;;;;;19.80;12.82;;;;;;;;;;4993249;28;20389;-80
2021/12/04 04:17:30;;;;;;;18.77;11.52;;;;;;;;;;4993530;28;20057;-81
2021/12/04 04:19:56;;;;;;;20.80;11.77;;;;;;;;;;4992219;28;20050;-82
2021/12/04 04:22:22;;;;;;;18.48;11.40;;;;;;;;;;4992651;28;20053;-81
2021/12/04 04:24:48;;;;;;;21.20;12.80;;;;;;;;;;4991896;28;20485;-81
2021/12/04 04:27:14;;;;;;;20.50;11.63;;;;;;;;;;4993293;28;20050;-81
2021/12/04 04:29:40;;;;;;;18.70;11.52;;;;;;;;;;4992209;28;20104;-81
2021/12/04 04:32:07;;;;;;;23.38;12.10;;;;;;;;;;4992126;28;20432;-81
2021/12/04 04:34:36;;;;;;;20.63;11.68;;;;;;;;;;4993347;28;20034;-80
2021/12/04 04:37:16;;;;;;;20.67;12.23;;;;;;;;;;4993773;28;20081;-81
2021/12/04 05:12:30;;;;;;;19.95;10.23;;;;;;;;;;4998247;28;20121;-81
2021/12/04 05:14:58;;;;;;;19.02;11.07;;;;;;;;;;4996720;28;20054;-82
2021/12/04 05:20:19;;;;;;;17.48;9.75;;;;;;;;;;4996271;28;20455;-80
2021/12/04 05:22:45;;;;;;;16.15;10.18;;;;;;;;;;4979330;28;20393;-80
2021/12/04 05:25:11;;;;;;;17.67;10.00;;;;;;;;;;4996067;28;20060;-81
2021/12/04 05:27:37;;;;;;;16.55;10.13;;;;;;;;;;4995160;28;20046;-80
2021/12/04 05:30:05;;;;;;;17.83;9.85;;;;;;;;;;4996499;28;20038;-80
2021/12/04 05:32:31;;;;;;;19.42;9.32;;;;;;;;;;4996604;28;20042;-81
2021/12/04 05:34:57;;;;;;;16.52;9.98;;;;;;;;;;4995247;28;20129;-81
2021/12/04 05:37:23;;;;;;;18.38;10.13;;;;;;;;;;4994977;28;20057;-80
2021/12/04 05:39:49;;;;;;;15.88;9.32;;;;;;;;;;4995010;28;20552;-81
2021/12/04 05:42:15;;;;;;;17.33;9.27;;;;;;;;;;4996156;28;20050;-81
2021/12/04 05:44:42;;;;;;;15.88;9.63;;;;;;;;;;4996397;28;20038;-81
2021/12/04 05:47:17;;;;;;;15.32;8.75;;;;;;;;;;4994598;28;20050;-81
2021/12/04 05:57:08;;;;;;;18.73;9.68;;;;;;;;;;4995977;28;20104;-81
2021/12/04 05:59:34;;;;;;;19.17;10.18;;;;;;;;;;4994930;28;20080;-80
2021/12/04 06:02:00;;;;;;;20.67;9.95;;;;;;;;;;4994274;28;20050;-81
2021/12/04 06:04:26;;;;;;;17.20;9.82;;;;;;;;;;4995990;28;20097;-81
2021/12/04 06:06:52;;;;;;;17.48;9.82;;;;;;;;;;4995354;28;20572;-80
2021/12/04 06:09:18;;;;;;;18.27;10.05;;;;;;;;;;4995911;28;20077;-81
2021/12/04 06:11:44;;;;;;;16.67;9.82;;;;;;;;;;4994071;28;20069;-80
2021/12/04 06:14:10;;;;;;;18.27;9.45;;;;;;;;;;4994430;28;20046;-81
2021/12/04 06:16:36;;;;;;;15.65;9.52;;;;;;;;;;4995365;28;20525;-81
2021/12/04 06:19:23;;;;;;;18.40;9.52;;;;;;;;;;4994492;28;20057;-81
2021/12/04 06:24:34;;;;;;;16.60;9.63;;;;;;;;;;4995361;28;20061;-80
2021/12/04 06:27:00;;;;;;;18.73;9.43;;;;;;;;;;4993860;28;20058;-81
2021/12/04 06:29:26;;;;;;;19.10;9.80;;;;;;;;;;4994312;28;20065;-81
2021/12/04 06:31:53;;;;;;;18.00;9.93;;;;;;;;;;4994014;28;20045;-81
2021/12/04 06:34:19;;;;;;;20.25;10.40;;;;;;;;;;4994063;28;20552;-81
2021/12/04 06:36:45;;;;;;;18.80;10.32;;;;;;;;;;4993802;28;20051;-81
2021/12/04 06:39:11;;;;;;;20.17;9.98;;;;;;;;;;4995422;28;20048;-80
2021/12/04 06:41:37;;;;;;;20.33;10.70;;;;;;;;;;4993894;28;20393;-81
2021/12/04 06:44:04;;;;;;;18.05;9.60;;;;;;;;;;4993961;28;20121;-81
2021/12/04 06:46:30;;;;;;;21.80;10.32;;;;;;;;;;4993467;28;20050;-81
2021/12/04 06:51:37;;;;;;;20.23;10.02;;;;;;;;;;4993404;28;20053;-81
2021/12/04 06:54:18;;;;;;;20.75;10.50;;;;;;;;;;4993869;28;20030;-80
2021/12/04 06:56:45;;;;;;;21.38;9.40;;;;;;;;;;4993468;28;20153;-81
2021/12/04 06:59:13;;;;;;;23.90;11.48;;;;;;;;;;4993799;28;20122;-81
2021/12/04 07:01:40;;;;;;;24.10;11.52;;;;;;;;;;4994713;28;20042;-81
2021/12/04 07:04:08;;;;;;;22.90;10.75;;;;;;;;;;4994878;28;20045;-80
2021/12/04 07:06:34;;;;;;;20.75;10.93;;;;;;;;;;4993086;28;20121;-81
2021/12/04 07:09:00;;;;;;;20.27;10.40;;;;;;;;;;4993619;28;20042;-81
2021/12/04 07:11:27;;;;;;;21.77;10.55;;;;;;;;;;4993259;28;20050;-81
2021/12/04 07:13:53;;;;;;;21.92;10.77;;;;;;;;;;4993487;28;20096;-81
2021/12/04 07:16:21;;;;;;;21.20;10.30;;;;;;;;;;4994516;28;20043;-81
2021/12/04 07:18:47;;;;;;;26.60;10.27;;;;;;;;;;4993502;28;20046;-80
2021/12/04 07:21:13;;;;;;;24.05;10.65;;;;;;;;;;4992814;28;20050;-81
2021/12/04 07:23:39;;;;;;;21.67;11.00;;;;;;;;;;4993884;28;20050;-80
2021/12/04 07:26:06;;;;;;;22.05;11.10;;;;;;;;;;4992750;28;20460;-81
2021/12/04 07:28:32;;;;;;;22.23;10.50;;;;;;;;;;4992712;28;20043;-82
2021/12/04 07:30:58;;;;;;;21.13;10.60;;;;;;;;;;4994348;28;20038;-81
2021/12/04 07:33:24;;;;;;;23.60;10.80;;;;;;;;;;4994241;28;20183;-81
2021/12/04 07:35:50;;;;;;;24.35;11.52;;;;;;;;;;4993964;28;20474;-81
2021/12/04 07:38:17;;;;;;;20.58;10.18;;;;;;;;;;4992459;28;20038;-82
2021/12/04 07:40:43;;;;;;;21.48;11.57;;;;;;;;;;4992721;28;20046;-82
2021/12/04 07:43:09;;;;;;;31.85;11.15;;;;;;;;;;4993958;28;20156;-81
2021/12/04 07:45:35;;;;;;;20.80;11.15;;;;;;;;;;4992587;28;20043;-82
2021/12/04 07:48:02;;;;;;;25.67;10.85;;;;;;;;;;4991904;28;20046;-82
2021/12/04 07:50:29;;;;;;;17.73;10.18;;;;;;;;;;4990425;28;20121;-81
2021/12/04 07:52:55;;;;;;;24.90;11.25;;;;;;;;;;4990364;28;20054;-80
2021/12/04 07:55:22;;;;;;;19.48;10.35;;;;;;;;;;4990580;28;20057;-82
2021/12/04 07:57:48;;;;;;;20.92;9.65;;;;;;;;;;4990171;28;20053;-81
2021/12/04 08:00:16;;;;;;;21.67;10.55;;;;;;;;;;4989014;28;20046;-85
2021/12/04 08:02:42;;;;;;;22.50;10.57;;;;;;;;;;4988765;28;20478;-85
2021/12/04 08:05:09;;;;;;;19.45;10.15;;;;;;;;;;4989096;28;20050;-84
2021/12/04 08:07:35;;;;;;;21.08;10.48;;;;;;;;;;4972526;28;20134;-85
2021/12/04 08:10:01;;;;;;;21.73;10.85;;;;;;;;;;4988817;28;20053;-84
2021/12/04 08:12:27;;;;;;;17.48;9.85;;;;;;;;;;4990036;28;20042;-82
2021/12/04 08:14:54;;;;;;;19.13;10.57;;;;;;;;;;4990508;28;20070;-82
2021/12/04 08:17:20;;;;;;;22.75;10.80;;;;;;;;;;4988867;28;20132;-80
2021/12/04 08:19:46;;;;;;;20.40;10.48;;;;;;;;;;4988754;28;20549;-80
2021/12/04 08:22:12;;;;;;;17.45;9.27;;;;;;;;;;4988573;28;20133;-84
2021/12/04 08:24:40;;;;;;;23.52;10.65;;;;;;;;;;4988698;28;20399;-82
2021/12/04 08:27:08;;;;;;;20.25;10.13;;;;;;;;;;4989937;28;20518;-82
2021/12/04 08:29:34;;;;;;;16.40;8.80;;;;;;;;;;4990404;28;20068;-81
2021/12/04 08:32:00;;;;;;;17.10;9.25;;;;;;;;;;4988765;28;20050;-82
2021/12/04 08:34:26;;;;;;;15.85;8.88;;;;;;;;;;4990232;28;20137;-82
2021/12/04 08:36:52;;;;;;;15.48;8.48;;;;;;;;;;4992062;28;20137;-82
2021/12/04 08:39:20;;;;;;;16.17;8.65;;;;;;;;;;4992706;28;20100;-81
2021/12/04 08:41:46;;;;;;;16.17;7.90;;;;;;;;;;4992542;28;20053;-81
2021/12/04 08:44:12;;;;;;;14.82;8.25;;;;;;;;;;4992420;28;20128;-81
2021/12/04 08:46:38;;;;;;;12.10;6.95;;;;;;;;;;4992540;28;20046;-81
2021/12/04 08:49:05;;;;;;;12.07;6.65;;;;;;;;;;4992276;28;20047;-82
2021/12/04 08:51:31;;;;;;;11.35;6.82;;;;;;;;;;4976484;28;20038;-82
2021/12/04 08:53:57;;;;;;;12.05;6.45;;;;;;;;;;4976359;28;20576;-82
2021/12/04 08:56:24;;;;;;;13.38;7.65;;;;;;;;;;4992531;28;20046;-81
2021/12/04 08:58:50;;;;;;;12.88;6.70;;;;;;;;;;4992497;28;20065;-82
2021/12/04 09:01:24;;;;;;;12.63;7.95;;;;;;;;;;4993705;28;20042;-82
2021/12/04 09:03:52;;;;;;;12.57;7.45;;;;;;;;;;4993513;28;20053;-82
2021/12/04 09:06:19;;;;;;;11.20;7.43;;;;;;;;;;4975910;28;20115;-82
2021/12/04 09:08:45;;;;;;;13.77;7.85;;;;;;;;;;4976318;28;20042;-82
2021/12/04 09:11:13;;;;;;;14.10;8.38;;;;;;;;;;4992415;28;20501;-82
2021/12/04 09:13:39;;;;;;;12.48;7.55;;;;;;;;;;4993335;28;20130;-83
2021/12/04 09:16:06;;;;;;;14.23;8.48;;;;;;;;;;4995261;28;20053;-81
2021/12/04 09:18:32;;;;;;;12.18;7.95;;;;;;;;;;4996543;28;20046;-81
2021/12/04 09:20:58;;;;;;;15.82;9.40;;;;;;;;;;4996665;28;20046;-81
2021/12/04 09:23:30;;;;;;;15.07;9.05;;;;;;;;;;4996277;28;20096;-81
2021/12/04 09:26:00;;;;;;;15.57;9.10;;;;;;;;;;4996698;28;20103;-81
2021/12/04 09:28:29;;;;;;;13.00;8.10;;;;;;;;;;4994899;28;20387;-81
2021/12/04 09:31:18;;;;;;;14.57;8.82;;;;;;;;;;4995377;28;20038;-82
2021/12/04 09:36:33;;;;;;;15.02;9.10;;;;;;;;;;4995009;28;20054;-81
2021/12/04 10:01:15;;;;;;;13.98;7.88;;;;;;;;;;4994902;28;20130;-82
2021/12/04 10:04:03;;;;;;;13.40;8.05;;;;;;;;;;4994753;28;20054;-82
2021/12/04 10:11:14;;;;;;;14.52;8.80;;;;;;;;;;4995631;28;20057;-82
2021/12/04 10:18:21;;;;;;;13.50;8.00;;;;;;;;;;4994534;28;20441;-83
2021/12/04 10:34:27;;;;;;;12.40;7.53;;;;;;;;;;4995225;28;20413;-82
2021/12/04 10:36:53;;;;;;;14.93;8.43;;;;;;;;;;4995438;28;20053;-82
2021/12/04 10:39:20;;;;;;;14.73;7.70;;;;;;;;;;4995122;28;20042;-81
2021/12/04 10:41:46;;;;;;;15.13;8.23;;;;;;;;;;4994909;28;20054;-81
2021/12/04 10:44:14;;;;;;;14.68;8.15;;;;;;;;;;4993676;28;20065;-82
2021/12/04 10:46:51;;;;;;;14.90;8.35;;;;;;;;;;4995211;28;20046;-81
2021/12/04 10:49:28;;;;;;;14.32;8.45;;;;;;;;;;4994949;28;20116;-81
2021/12/04 10:52:02;;;;;;;15.65;8.23;;;;;;;;;;4995319;28;20038;-80
2021/12/04 10:54:32;;;;;;;14.38;8.75;;;;;;;;;;4993860;28;20042;-80
2021/12/04 11:03:01;;;;;;;14.52;8.25;;;;;;;;;;4993437;28;20050;-80
2021/12/04 11:05:51;;;;;;;13.67;7.57;;;;;;;;;;4977378;28;20057;-80
2021/12/04 11:19:36;;;;;;;16.67;9.13;;;;;;;;;;4994381;28;20070;-80
2021/12/04 11:22:26;;;;;;;18.40;9.73;;;;;;;;;;4993367;28;20045;-80
2021/12/04 11:26:03;;;;;;;18.38;10.27;;;;;;;;;;4993929;28;20059;-80
2021/12/04 11:39:07;;;;;;;19.55;10.48;;;;;;;;;;4993008;28;20053;-80
2021/12/04 11:46:43;;;;;;;20.30;11.82;;;;;;;;;;4992706;28;20057;-80
2021/12/04 11:49:10;;;;;;;21.10;11.80;;;;;;;;;;4993835;28;20046;-80
2021/12/04 11:51:44;;;;;;;22.23;10.93;;;;;;;;;;4992594;28;20085;-80
2021/12/04 11:54:11;;;;;;;19.30;11.20;;;;;;;;;;4993814;28;20046;-80
2021/12/04 11:56:37;;;;;;;19.25;11.60;;;;;;;;;;4992723;28;20065;-80
2021/12/04 11:59:03;;;;;;;20.73;11.82;;;;;;;;;;4993537;28;20471;-81
2021/12/04 12:01:31;;;;;;;18.63;11.27;;;;;;;;;;4992419;28;20393;-81
2021/12/04 12:03:59;;;;;;;18.35;10.88;;;;;;;;;;4992325;28;20045;-82
2021/12/04 12:06:41;;;;;;;18.63;11.07;;;;;;;;;;4992185;28;20053;-80
2021/12/04 12:09:10;;;;;;;22.48;11.70;;;;;;;;;;4992379;28;20090;-81
2021/12/04 12:11:36;;;;;;;19.20;10.95;;;;;;;;;;4975741;28;20595;-81
2021/12/04 12:14:04;;;;;;;19.77;11.00;;;;;;;;;;4992255;28;20105;-81
2021/12/04 12:16:36;;;;;;;21.02;11.52;;;;;;;;;;4976105;28;20062;-81
2021/12/04 12:19:07;;;;;;;19.55;11.02;;;;;;;;;;4993529;28;20042;-81
2021/12/04 12:22:02;;;;;;;19.15;11.02;;;;;;;;;;4992289;28;20048;-81
2021/12/04 12:27:16;;;;;;;21.88;12.23;;;;;;;;;;4993608;28;20053;-81
2021/12/04 12:38:29;;;;;;;24.02;13.25;;;;;;;;;;4993545;28;20046;-81
2021/12/04 12:41:00;;;;;;;22.25;12.85;;;;;;;;;;4991800;28;20050;-80
2021/12/04 12:43:34;;;;;;;22.55;13.10;;;;;;;;;;4993629;28;20504;-81
2021/12/04 12:46:00;;;;;;;26.27;14.55;;;;;;;;;;4991961;28;20054;-80
2021/12/04 12:48:26;;;;;;;24.25;13.70;;;;;;;;;;4991937;28;20532;-81
2021/12/04 12:50:53;;;;;;;24.10;13.95;;;;;;;;;;4991705;28;20545;-80
2021/12/04 12:53:19;;;;;;;23.10;14.07;;;;;;;;;;4975937;28;20108;-80
2021/12/04 12:55:46;;;;;;;22.63;14.05;;;;;;;;;;4991683;28;20493;-80
2021/12/04 12:58:22;;;;;;;25.52;15.43;;;;;;;;;;4993173;28;20494;-81
2021/12/04 13:11:55;;;;;;;28.38;16.33;;;;;;;;;;4992993;28;20038;-80
2021/12/04 13:14:22;;;;;;;28.38;16.25;;;;;;;;;;4991869;28;20170;-80
2021/12/04 13:16:57;;;;;;;32.00;18.08;;;;;;;;;;4991715;28;20108;-80
2021/12/04 13:19:24;;;;;;;31.85;17.25;;;;;;;;;;4992052;28;20080;-80
2021/12/04 13:21:51;;;;;;;34.13;18.23;;;;;;;;;;4991408;28;20046;-80
2021/12/04 13:24:18;;;;;;;35.42;18.55;;;;;;;;;;4994972;28;20102;-80
2021/12/04 13:26:46;;;;;;;35.15;18.95;;;;;;;;;;4994934;28;20054;-80
2021/12/04 13:29:14;;;;;;;32.83;19.27;;;;;;;;;;4996379;28;20487;-80
2021/12/04 13:31:40;;;;;;;34.47;18.88;;;;;;;;;;4994887;28;20050;-80
2021/12/04 13:34:07;;;;;;;36.03;19.20;;;;;;;;;;4996525;28;20061;-81
2021/12/04 13:36:33;;;;;;;39.40;20.30;;;;;;;;;;4995047;28;20050;-82
2021/12/04 13:39:01;;;;;;;38.30;19.35;;;;;;;;;;4996608;28;20051;-82
2021/12/04 13:41:28;;;;;;;38.88;19.70;;;;;;;;;;4995058;28;20088;-82
2021/12/04 13:43:55;;;;;;;41.30;20.95;;;;;;;;;;4995163;28;20398;-81
2021/12/04 13:46:22;;;;;;;39.45;19.58;;;;;;;;;;4994603;28;20066;-80
2021/12/04 13:48:48;;;;;;;42.85;21.65;;;;;;;;;;4996407;28;20039;-80
2021/12/04 13:51:14;;;;;;;39.63;19.42;;;;;;;;;;4994751;28;20122;-80
2021/12/04 13:53:42;;;;;;;39.40;19.83;;;;;;;;;;4994733;28;20100;-81
2021/12/04 13:56:13;;;;;;;37.70;18.17;;;;;;;;;;4994741;28;20423;-81
2021/12/04 13:58:48;;;;;;;41.45;20.17;;;;;;;;;;4994516;28;20039;-81
2021/12/04 14:01:14;;;;;;;40.25;19.38;;;;;;;;;;4994316;28;20042;-81
2021/12/04 14:03:40;;;;;;;35.70;19.88;;;;;;;;;;4995697;28;20038;-81
2021/12/04 14:06:10;;;;;;;37.08;18.42;;;;;;;;;;4995626;28;20077;-81
2021/12/04 14:08:36;;;;;;;38.10;19.17;;;;;;;;;;4995903;28;20041;-81
2021/12/04 14:11:02;;;;;;;42.70;19.48;;;;;;;;;;4994346;28;20038;-81
2021/12/04 14:13:28;;;;;;;40.00;19.83;;;;;;;;;;4994633;28;20042;-81
2021/12/04 14:15:55;;;;;;;34.10;16.85;;;;;;;;;;4995440;28;20611;-81
2021/12/04 14:18:22;;;;;;;35.63;18.30;;;;;;;;;;4994705;28;20065;-81
2021/12/04 14:20:53;;;;;;;38.22;19.05;;;;;;;;;;4994223;28;20049;-81
2021/12/04 14:23:20;;;;;;;32.97;17.85;;;;;;;;;;4995477;28;20414;-81
2021/12/04 14:25:53;;;;;;;40.13;19.55;;;;;;;;;;4993869;28;20046;-81
2021/12/04 14:28:19;;;;;;;30.77;16.02;;;;;;;;;;4977905;28;20500;-81
2021/12/04 14:30:47;;;;;;;31.30;16.80;;;;;;;;;;4977746;28;20448;-84
2021/12/04 14:33:17;;;;;;;31.92;16.30;;;;;;;;;;4977901;28;20481;-85
2021/12/04 14:35:45;;;;;;;34.65;17.17;;;;;;;;;;4994070;28;20129;-80
2021/12/04 14:38:13;;;;;;;33.05;16.42;;;;;;;;;;4993958;28;20221;-81
2021/12/04 14:40:41;;;;;;;33.85;17.40;;;;;;;;;;4993862;28;20086;-81
2021/12/04 14:43:09;;;;;;;33.50;17.38;;;;;;;;;;4995305;28;20074;-81
2021/12/04 14:45:36;;;;;;;34.20;17.08;;;;;;;;;;4993705;28;20101;-81
2021/12/04 14:48:08;;;;;;;35.50;18.52;;;;;;;;;;4994626;28;20500;-81
2021/12/04 14:50:36;;;;;;;38.58;18.58;;;;;;;;;;4993564;28;20073;-81
2021/12/04 14:53:05;;;;;;;35.50;18.08;;;;;;;;;;4977373;28;20381;-81
2021/12/04 14:55:35;;;;;;;41.08;21.13;;;;;;;;;;4993801;28;20488;-81
2021/12/04 14:58:05;;;;;;;42.13;19.48;;;;;;;;;;4993264;28;20107;-80
2021/12/04 15:00:33;;;;;;;42.08;20.73;;;;;;;;;;4994860;28;20042;-81
2021/12/04 15:03:01;;;;;;;40.50;20.63;;;;;;;;;;4993543;28;20054;-81
2021/12/04 15:05:29;;;;;;;46.33;21.20;;;;;;;;;;4994734;28;20096;-81
2021/12/04 15:08:06;;;;;;;45.20;20.95;;;;;;;;;;4993035;28;20340;-85
2021/12/04 15:10:32;;;;;;;46.75;22.10;;;;;;;;;;4994619;28;20363;-81
2021/12/04 15:12:59;;;;;;;43.30;21.15;;;;;;;;;;4994443;28;20042;-80
2021/12/04 15:15:30;;;;;;;54.78;22.33;;;;;;;;;;4993020;28;20048;-81
2021/12/04 15:17:58;;;;;;;48.38;22.73;;;;;;;;;;4992841;28;20049;-81
2021/12/04 15:20:32;;;;;;;53.58;23.55;;;;;;;;;;4976884;28;20066;-81
2021/12/04 15:23:02;;;;;;;48.33;23.45;;;;;;;;;;4992778;28;20047;-81
2021/12/04 15:25:31;;;;;;;60.63;24.17;;;;;;;;;;4992852;28;20058;-81
2021/12/04 15:27:57;;;;;;;54.60;23.67;;;;;;;;;;4992827;28;20394;-81
2021/12/04 15:30:25;;;;;;;54.30;24.90;;;;;;;;;;4994173;28;20042;-81
2021/12/04 15:32:51;;;;;;;50.72;22.88;;;;;;;;;;4992887;28;20046;-81
2021/12/04 15:35:45;;;;;;;50.72;22.75;;;;;;;;;;4993882;28;20053;-81
2021/12/04 15:38:15;;;;;;;49.22;23.65;;;;;;;;;;4993493;28;20146;-81
2021/12/04 15:41:02;;;;;;;54.05;24.38;;;;;;;;;;4992448;28;20410;-81
2021/12/04 15:43:54;;;;;;;50.20;22.88;;;;;;;;;;4993667;28;20513;-81
2021/12/04 15:46:41;;;;;;;54.40;24.20;;;;;;;;;;4991700;28;20502;-81
2021/12/04 15:54:52;;;;;;;58.35;29.65;;;;;;;;;;4993682;28;20046;-81
2021/12/04 15:57:21;;;;;;;61.80;34.40;;;;;;;;;;4992192;28;20057;-81
2021/12/04 15:59:49;;;;;;;54.33;25.67;;;;;;;;;;4993489;28;20060;-81
2021/12/04 16:02:18;;;;;;;75.00;40.10;;;;;;;;;;4991805;28;20053;-82
2021/12/04 16:04:45;;;;;;;47.28;24.00;;;;;;;;;;4992201;28;20038;-82
2021/12/04 16:07:21;;;;;;;45.05;21.98;;;;;;;;;;4991520;28;20046;-81
2021/12/04 16:09:47;;;;;;;46.38;24.65;;;;;;;;;;4975826;28;20070;-83
2021/12/04 16:12:15;;;;;;;42.42;22.50;;;;;;;;;;4993107;28;20046;-82
2021/12/04 16:14:43;;;;;;;49.03;25.50;;;;;;;;;;4993132;28;20054;-82
2021/12/04 16:17:10;;;;;;;49.13;24.98;;;;;;;;;;4990910;28;20184;-82
2021/12/04 16:19:37;;;;;;;49.10;23.65;;;;;;;;;;4993151;28;20101;-82
2021/12/04 16:22:08;;;;;;;44.65;26.63;;;;;;;;;;4992884;28;20358;-82
2021/12/04 16:24:35;;;;;;;43.70;24.77;;;;;;;;;;4992862;28;20070;-82
2021/12/04 16:27:10;;;;;;;45.95;23.77;;;;;;;;;;4992802;28;20169;-82
2021/12/04 16:29:37;;;;;;;50.97;25.75;;;;;;;;;;4991627;28;20042;-82
2021/12/04 16:35:12;;;;;;;50.00;24.85;;;;;;;;;;4993055;28;20046;-82
2021/12/04 16:37:42;;;;;;;49.45;23.15;;;;;;;;;;4992651;28;20049;-82
2021/12/04 16:40:20;;;;;;;49.47;24.10;;;;;;;;;;4975751;28;20470;-82
2021/12/04 16:42:46;;;;;;;45.25;21.58;;;;;;;;;;4991328;28;20045;-82
2021/12/04 16:45:14;;;;;;;45.47;23.25;;;;;;;;;;4993000;28;20043;-82
2021/12/04 16:47:44;;;;;;;53.88;23.05;;;;;;;;;;4975059;28;20478;-82
2021/12/04 16:50:15;;;;;;;52.25;23.30;;;;;;;;;;4991313;28;20049;-82
2021/12/04 16:55:43;;;;;;;44.45;23.25;;;;;;;;;;4992750;28;20058;-83
2021/12/04 16:58:13;;;;;;;41.08;22.85;;;;;;;;;;4993516;28;20053;-83
2021/12/04 17:00:43;;;;;;;41.95;22.70;;;;;;;;;;4994998;28;20057;-83
2021/12/04 17:03:10;;;;;;;46.10;26.70;;;;;;;;;;4995108;28;20512;-82
2021/12/04 17:05:37;;;;;;;42.08;22.77;;;;;;;;;;4996523;28;20042;-82
2021/12/04 17:08:03;;;;;;;57.05;33.67;;;;;;;;;;4994626;28;20042;-83
2021/12/04 17:10:29;;;;;;;39.33;23.27;;;;;;;;;;4994824;28;20122;-83
2021/12/04 17:12:55;;;;;;;38.92;22.45;;;;;;;;;;4995012;28;20038;-82
2021/12/04 17:15:21;;;;;;;37.25;21.88;;;;;;;;;;4994711;28;20122;-83
2021/12/04 17:17:47;;;;;;;41.70;21.83;;;;;;;;;;4995782;28;20042;-82
2021/12/04 17:20:15;;;;;;;40.25;23.60;;;;;;;;;;4994695;28;20042;-85
2021/12/04 17:22:41;;;;;;;35.22;21.25;;;;;;;;;;4994454;28;20149;-83
2021/12/04 17:25:08;;;;;;;37.85;24.50;;;;;;;;;;4994546;28;20114;-83
2021/12/04 17:27:34;;;;;;;32.45;19.98;;;;;;;;;;4994318;28;20121;-84
2021/12/04 17:30:02;;;;;;;32.30;22.00;;;;;;;;;;4995582;28;20510;-82